Time;durP1;ratioP1;P1;durP2;ratioP2;P2;SDS_P1;SDS_P2;PMS_P1;PMS_P2;Temp;Humidity;BMP_temperature;BMP_pressure;BME280_temperature;BME280_humidity;BME280_pressure;Samples;Min_cycle;Max_cycle;Signal;HPM_P1;HPM_P2
2023/06/27 00:00:22;;;;;;;;;6.00;6.00;;;;;;;;119778;1192;25354;-79
2023/06/27 00:03:11;;;;;;;;;6.67;6.67;;;;;;;;119825;1183;25686;-78
2023/06/27 00:05:41;;;;;;;;;8.00;7.33;;;;;;;;119876;1192;25427;-78
2023/06/27 00:08:10;;;;;;;;;8.00;6.00;;;;;;;;119863;1183;24895;-79
2023/06/27 00:10:38;;;;;;;;;7.33;7.33;;;;;;;;119464;1193;25172;-79
2023/06/27 00:13:15;;;;;;;;;5.00;5.00;;;;;;;;119881;1192;25956;-78
2023/06/27 00:15:43;;;;;;;;;9.00;7.00;;;;;;;;119509;1193;26061;-78
2023/06/27 00:18:12;;;;;;;;;8.33;7.67;;;;;;;;119462;1185;25013;-69
2023/06/27 00:20:40;;;;;;;;;7.50;7.50;;;;;;;;119692;1193;25321;-67
2023/06/27 00:23:22;;;;;;;;;5.67;5.33;;;;;;;;119727;1192;25626;-61
2023/06/27 00:25:50;;;;;;;;;8.00;7.50;;;;;;;;119683;1192;25130;-64
2023/06/27 00:28:19;;;;;;;;;8.00;7.00;;;;;;;;119890;1192;24799;-64
2023/06/27 00:30:47;;;;;;;;;8.75;7.00;;;;;;;;119862;1192;25565;-64
2023/06/27 00:33:15;;;;;;;;;7.00;7.00;;;;;;;;119774;1185;24853;-64
2023/06/27 00:35:43;;;;;;;;;7.50;7.50;;;;;;;;119868;1183;25462;-64
2023/06/27 00:38:12;;;;;;;;;7.33;7.33;;;;;;;;119867;1192;26377;-65
2023/06/27 00:40:40;;;;;;;;;8.00;6.00;;;;;;;;119855;1192;25227;-64
2023/06/27 00:43:08;;;;;;;;;7.25;6.75;;;;;;;;119733;1192;24701;-64
2023/06/27 00:45:37;;;;;;;;;9.50;8.00;;;;;;;;119839;1183;24954;-64
2023/06/27 00:48:06;;;;;;;;;9.33;8.67;;;;;;;;119846;1192;25483;-64
2023/06/27 00:50:35;;;;;;;;;6.00;6.00;;;;;;;;119877;1189;25181;-64
2023/06/27 00:53:04;;;;;;;;;7.00;7.00;;;;;;;;119880;1183;25505;-64
2023/06/27 00:55:33;;;;;;;;;7.50;6.00;;;;;;;;119475;1185;25251;-64
2023/06/27 00:58:01;;;;;;;;;6.00;6.00;;;;;;;;119866;1192;25335;-64
2023/06/27 01:00:30;;;;;;;;;5.00;5.00;;;;;;;;119729;1185;24961;-65
2023/06/27 01:02:58;;;;;;;;;6.67;6.67;;;;;;;;119868;1192;24831;-64
2023/06/27 01:05:28;;;;;;;;;6.00;5.00;;;;;;;;119500;1192;25956;-64
2023/06/27 01:08:21;;;;;;;;;6.00;4.25;;;;;;;;119452;1192;24710;-64
2023/06/27 01:11:08;;;;;;;;;5.00;5.00;;;;;;;;119854;1192;25375;-64
2023/06/27 01:13:37;;;;;;;;;6.67;5.67;;;;;;;;119868;1192;24993;-64
2023/06/27 01:16:06;;;;;;;;;5.00;3.75;;;;;;;;119497;1192;25018;-64
2023/06/27 01:18:37;;;;;;;;;4.50;4.50;;;;;;;;119504;1186;25243;-64
2023/06/27 01:21:08;;;;;;;;;8.33;6.00;;;;;;;;119488;1192;24835;-65
2023/06/27 01:23:58;;;;;;;;;4.75;4.25;;;;;;;;119470;1192;25637;-64
2023/06/27 01:26:27;;;;;;;;;5.00;5.00;;;;;;;;119747;1186;24764;-64
2023/06/27 01:28:56;;;;;;;;;7.00;6.50;;;;;;;;119884;1192;25594;-64
2023/06/27 01:31:43;;;;;;;;;5.50;5.50;;;;;;;;119480;1192;25368;-64
2023/06/27 01:34:20;;;;;;;;;8.75;6.50;;;;;;;;119877;1188;25369;-64
2023/06/27 01:36:54;;;;;;;;;4.33;4.33;;;;;;;;119497;1185;25492;-64
2023/06/27 01:39:26;;;;;;;;;6.00;5.00;;;;;;;;119485;1192;25023;-64
2023/06/27 01:41:59;;;;;;;;;4.00;3.00;;;;;;;;119480;1185;24798;-64
2023/06/27 01:44:27;;;;;;;;;5.50;5.50;;;;;;;;119789;1192;25643;-64
2023/06/27 01:46:56;;;;;;;;;6.00;6.00;;;;;;;;119483;1185;25105;-64
2023/06/27 01:49:24;;;;;;;;;8.25;5.00;;;;;;;;119465;1192;25274;-64
2023/06/27 01:51:57;;;;;;;;;9.00;6.33;;;;;;;;119438;1193;25010;-64
2023/06/27 01:54:26;;;;;;;;;6.00;6.00;;;;;;;;119767;1192;25679;-64
2023/06/27 01:56:54;;;;;;;;;6.67;6.67;;;;;;;;119734;1183;25283;-64
2023/06/27 01:59:22;;;;;;;;;6.00;5.00;;;;;;;;119746;1192;25000;-64
2023/06/27 02:01:50;;;;;;;;;5.00;5.00;;;;;;;;119856;1192;25490;-65
2023/06/27 02:04:19;;;;;;;;;7.00;5.33;;;;;;;;119696;1192;25606;-64
2023/06/27 02:06:47;;;;;;;;;7.00;7.00;;;;;;;;119668;1192;25162;-65
2023/06/27 02:09:15;;;;;;;;;6.00;6.00;;;;;;;;119758;1192;24950;-65
2023/06/27 02:11:45;;;;;;;;;5.00;5.00;;;;;;;;119480;1185;25144;-64
2023/06/27 02:14:14;;;;;;;;;10.00;7.00;;;;;;;;119777;1185;25044;-64
2023/06/27 02:16:42;;;;;;;;;7.67;6.00;;;;;;;;119805;1192;25599;-64
2023/06/27 02:19:10;;;;;;;;;7.00;4.67;;;;;;;;119715;1192;25569;-64
2023/06/27 02:21:38;;;;;;;;;9.00;7.00;;;;;;;;119447;1193;24918;-65
2023/06/27 02:24:07;;;;;;;;;5.50;5.50;;;;;;;;119695;1185;25156;-64
2023/06/27 02:26:35;;;;;;;;;6.00;5.00;;;;;;;;119733;1192;25486;-64
2023/06/27 02:29:03;;;;;;;;;6.00;4.50;;;;;;;;119872;1192;24950;-64
2023/06/27 02:31:32;;;;;;;;;4.00;4.00;;;;;;;;119880;1184;24731;-64
2023/06/27 02:34:01;;;;;;;;;5.00;5.00;;;;;;;;119866;1191;25507;-64
2023/06/27 02:36:29;;;;;;;;;3.00;3.00;;;;;;;;119840;1189;25516;-64
2023/06/27 02:39:00;;;;;;;;;5.00;5.00;;;;;;;;119457;1193;25136;-64
2023/06/27 02:41:28;;;;;;;;;6.00;6.00;;;;;;;;119476;1192;25599;-64
2023/06/27 02:43:57;;;;;;;;;5.33;4.67;;;;;;;;119498;1190;25088;-64
2023/06/27 02:46:25;;;;;;;;;5.00;5.00;;;;;;;;119652;1192;25020;-64
2023/06/27 02:48:53;;;;;;;;;4.33;4.00;;;;;;;;119896;1192;25589;-64
2023/06/27 02:51:23;;;;;;;;;5.00;5.00;;;;;;;;119895;1183;25212;-64
2023/06/27 02:53:51;;;;;;;;;5.67;5.67;;;;;;;;119884;1192;25564;-64
2023/06/27 02:56:19;;;;;;;;;6.00;6.00;;;;;;;;119531;1192;25306;-64
2023/06/27 02:58:47;;;;;;;;;5.50;5.00;;;;;;;;119820;1192;24915;-64
2023/06/27 03:01:16;;;;;;;;;3.67;3.67;;;;;;;;119788;1183;25548;-64
2023/06/27 03:03:45;;;;;;;;;4.00;4.00;;;;;;;;119879;1192;25300;-64
2023/06/27 03:06:14;;;;;;;;;6.50;5.00;;;;;;;;119846;1192;24741;-64
2023/06/27 03:08:44;;;;;;;;;5.50;5.00;;;;;;;;119846;1192;25489;-63
2023/06/27 03:11:12;;;;;;;;;7.00;5.00;;;;;;;;119900;1189;25218;-64
2023/06/27 03:13:40;;;;;;;;;6.00;6.00;;;;;;;;119719;1192;25309;-64
2023/06/27 03:16:09;;;;;;;;;5.00;5.00;;;;;;;;119485;1192;25571;-64
2023/06/27 03:18:37;;;;;;;;;6.00;6.00;;;;;;;;119854;1184;25186;-64
2023/06/27 03:21:05;;;;;;;;;5.00;5.00;;;;;;;;119842;1192;24750;-64
2023/06/27 03:23:34;;;;;;;;;3.50;3.50;;;;;;;;119849;1192;25042;-64
2023/06/27 03:26:03;;;;;;;;;5.33;4.00;;;;;;;;119878;1184;25513;-64
2023/06/27 03:28:31;;;;;;;;;5.00;4.00;;;;;;;;119892;1184;25633;-64
2023/06/27 03:30:59;;;;;;;;;6.50;4.50;;;;;;;;119871;1192;25368;-64
2023/06/27 03:33:27;;;;;;;;;4.00;4.00;;;;;;;;119786;1192;25787;-64
2023/06/27 03:35:56;;;;;;;;;5.00;5.00;;;;;;;;119446;1184;25229;-64
2023/06/27 03:38:24;;;;;;;;;3.00;3.00;;;;;;;;119726;1192;25788;-64
2023/06/27 03:40:53;;;;;;;;;5.50;5.50;;;;;;;;119695;1192;25806;-64
2023/06/27 03:43:21;;;;;;;;;3.00;3.00;;;;;;;;119858;1189;25425;-64
2023/06/27 03:45:49;;;;;;;;;7.67;5.00;;;;;;;;119843;1192;25223;-64
2023/06/27 03:48:18;;;;;;;;;4.25;4.25;;;;;;;;119675;1193;25739;-64
2023/06/27 03:50:46;;;;;;;;;8.00;4.33;;;;;;;;119752;1192;25005;-64
2023/06/27 03:53:14;;;;;;;;;8.33;4.67;;;;;;;;119447;1192;24909;-64
2023/06/27 03:55:43;;;;;;;;;4.33;4.00;;;;;;;;119657;1193;25437;-65
2023/06/27 03:58:11;;;;;;;;;5.67;5.67;;;;;;;;119689;1183;25650;-64
2023/06/27 04:00:41;;;;;;;;;6.00;6.00;;;;;;;;119856;1192;25368;-64
2023/06/27 04:03:09;;;;;;;;;8.00;4.33;;;;;;;;119435;1192;25452;-68
2023/06/27 04:05:38;;;;;;;;;5.00;5.00;;;;;;;;119472;1185;24915;-68
2023/06/27 04:08:07;;;;;;;;;4.00;4.00;;;;;;;;119676;1185;25476;-68
2023/06/27 04:10:35;;;;;;;;;5.67;5.00;;;;;;;;119678;1185;25510;-69
2023/06/27 04:13:03;;;;;;;;;6.00;5.00;;;;;;;;119447;1193;25863;-69
2023/06/27 04:15:32;;;;;;;;;6.50;6.00;;;;;;;;119774;1192;24932;-68
2023/06/27 04:18:00;;;;;;;;;4.50;4.00;;;;;;;;119717;1186;25498;-68
2023/06/27 04:20:28;;;;;;;;;6.50;5.00;;;;;;;;119712;1189;25272;-68
2023/06/27 04:22:56;;;;;;;;;9.00;6.00;;;;;;;;119707;1192;25216;-68
2023/06/27 04:25:29;;;;;;;;;7.00;5.00;;;;;;;;119480;1193;25150;-68
2023/06/27 04:27:58;;;;;;;;;6.67;6.67;;;;;;;;119720;1192;25249;-67
2023/06/27 04:30:26;;;;;;;;;5.00;3.00;;;;;;;;119912;1184;24949;-69
2023/06/27 04:32:54;;;;;;;;;4.00;4.00;;;;;;;;119871;1183;25098;-68
2023/06/27 04:35:23;;;;;;;;;7.00;4.00;;;;;;;;119869;1192;25469;-68
2023/06/27 04:37:51;;;;;;;;;5.67;4.67;;;;;;;;119833;1184;25070;-68
2023/06/27 04:40:20;;;;;;;;;5.67;5.67;;;;;;;;119824;1192;24953;-67
2023/06/27 04:42:48;;;;;;;;;5.00;4.00;;;;;;;;119517;1192;25089;-67
2023/06/27 04:45:16;;;;;;;;;5.00;5.00;;;;;;;;119869;1192;25164;-67
2023/06/27 04:47:45;;;;;;;;;5.00;5.00;;;;;;;;119887;1192;25469;-68
2023/06/27 04:50:18;;;;;;;;;7.00;5.50;;;;;;;;119859;1184;25092;-68
2023/06/27 04:52:46;;;;;;;;;5.00;5.00;;;;;;;;119710;1192;24794;-65
2023/06/27 04:55:15;;;;;;;;;5.50;5.50;;;;;;;;119788;1192;25073;-65
2023/06/27 04:57:44;;;;;;;;;4.50;4.00;;;;;;;;119705;1192;25242;-65
2023/06/27 05:00:13;;;;;;;;;4.00;4.00;;;;;;;;119857;1192;24900;-65
2023/06/27 05:02:41;;;;;;;;;8.33;5.33;;;;;;;;119453;1193;25297;-65
2023/06/27 05:05:17;;;;;;;;;6.00;6.00;;;;;;;;119461;1193;24805;-65
2023/06/27 05:07:45;;;;;;;;;4.50;3.00;;;;;;;;119687;1185;24935;-65
2023/06/27 05:10:13;;;;;;;;;3.00;3.00;;;;;;;;119699;1189;24952;-64
2023/06/27 05:12:42;;;;;;;;;5.00;4.00;;;;;;;;119676;1193;25396;-68
2023/06/27 05:15:10;;;;;;;;;6.50;5.50;;;;;;;;119676;1193;25067;-65
2023/06/27 05:17:38;;;;;;;;;3.00;3.00;;;;;;;;119680;1192;25284;-68
2023/06/27 05:20:08;;;;;;;;;4.67;4.67;;;;;;;;119875;1192;25181;-74
2023/06/27 05:22:36;;;;;;;;;4.00;4.00;;;;;;;;119786;1189;24937;-73
2023/06/27 05:25:05;;;;;;;;;6.00;6.00;;;;;;;;119673;1185;24755;-70
2023/06/27 05:27:33;;;;;;;;;6.50;6.50;;;;;;;;119446;1186;24829;-71
2023/06/27 05:30:01;;;;;;;;;4.00;4.00;;;;;;;;119681;1185;25316;-65
2023/06/27 05:32:30;;;;;;;;;9.00;8.00;;;;;;;;119832;1192;25448;-68
2023/06/27 05:34:58;;;;;;;;;7.50;7.50;;;;;;;;119871;1184;25291;-70
2023/06/27 05:37:26;;;;;;;;;9.00;8.00;;;;;;;;119770;1183;24794;-69
2023/06/27 05:39:54;;;;;;;;;9.00;7.33;;;;;;;;119819;1192;24982;-72
2023/06/27 05:42:23;;;;;;;;;10.25;10.00;;;;;;;;119884;1192;24822;-68
2023/06/27 05:44:51;;;;;;;;;14.00;11.00;;;;;;;;119835;1186;24720;-65
2023/06/27 05:47:19;;;;;;;;;7.33;5.00;;;;;;;;119560;1186;24783;-67
2023/06/27 05:49:48;;;;;;;;;12.00;10.00;;;;;;;;119756;1192;24972;-67
2023/06/27 05:52:16;;;;;;;;;13.50;11.00;;;;;;;;119879;1192;25528;-71
2023/06/27 05:54:49;;;;;;;;;11.00;9.00;;;;;;;;119883;1184;25507;-70
2023/06/27 05:57:18;;;;;;;;;13.00;9.67;;;;;;;;119487;1192;25682;-69
2023/06/27 05:59:46;;;;;;;;;7.33;6.67;;;;;;;;119485;1186;25353;-68
2023/06/27 06:02:14;;;;;;;;;10.00;7.50;;;;;;;;119887;1192;25168;-65
2023/06/27 06:04:43;;;;;;;;;4.00;4.00;;;;;;;;119910;1188;25643;-64
2023/06/27 06:07:11;;;;;;;;;11.00;8.00;;;;;;;;119882;1192;25135;-65
2023/06/27 06:09:39;;;;;;;;;11.50;9.50;;;;;;;;119876;1188;24866;-65
2023/06/27 06:12:08;;;;;;;;;12.00;9.00;;;;;;;;119854;1192;24734;-66
2023/06/27 06:14:36;;;;;;;;;11.00;7.25;;;;;;;;119858;1192;24962;-66
2023/06/27 06:17:05;;;;;;;;;8.00;6.50;;;;;;;;119885;1191;25768;-66
2023/06/27 06:19:33;;;;;;;;;9.00;7.00;;;;;;;;119594;1192;25205;-68
2023/06/27 06:22:02;;;;;;;;;9.00;6.33;;;;;;;;119931;1188;25212;-65
2023/06/27 06:24:30;;;;;;;;;9.00;8.00;;;;;;;;119897;1188;25092;-66
2023/06/27 06:26:58;;;;;;;;;10.00;7.50;;;;;;;;119950;1188;24906;-66
2023/06/27 06:29:27;;;;;;;;;10.50;9.50;;;;;;;;119887;1188;25585;-65
2023/06/27 06:31:55;;;;;;;;;9.33;7.00;;;;;;;;119932;1183;25715;-65
2023/06/27 06:34:24;;;;;;;;;8.00;8.00;;;;;;;;119883;1183;25120;-66
2023/06/27 06:36:53;;;;;;;;;9.33;6.67;;;;;;;;119894;1192;25182;-65
2023/06/27 06:39:21;;;;;;;;;13.00;10.00;;;;;;;;119892;1183;25660;-64
2023/06/27 06:41:50;;;;;;;;;9.00;6.50;;;;;;;;119904;1188;24921;-66
2023/06/27 06:44:19;;;;;;;;;11.50;8.00;;;;;;;;119611;1189;25609;-65
2023/06/27 06:46:47;;;;;;;;;8.25;7.25;;;;;;;;119806;1192;26450;-65
2023/06/27 06:49:15;;;;;;;;;10.00;7.00;;;;;;;;119883;1183;25601;-65
2023/06/27 06:51:44;;;;;;;;;10.00;9.00;;;;;;;;119875;1189;25228;-69
2023/06/27 06:54:12;;;;;;;;;10.00;9.00;;;;;;;;119881;1183;24752;-69
2023/06/27 06:56:41;;;;;;;;;10.33;8.67;;;;;;;;119863;1192;25570;-70
2023/06/27 06:59:09;;;;;;;;;11.00;7.67;;;;;;;;119843;1192;24856;-67
2023/06/27 07:01:37;;;;;;;;;20.00;10.50;;;;;;;;119870;1183;24906;-69
2023/06/27 07:04:06;;;;;;;;;9.67;9.00;;;;;;;;119881;1192;25249;-69
2023/06/27 07:06:35;;;;;;;;;6.00;5.50;;;;;;;;119608;1185;25150;-69
2023/06/27 07:09:04;;;;;;;;;9.00;8.00;;;;;;;;119885;1183;25598;-69
2023/06/27 07:11:32;;;;;;;;;12.00;9.50;;;;;;;;119629;1185;25326;-69
2023/06/27 07:14:01;;;;;;;;;11.00;8.33;;;;;;;;119887;1188;25298;-70
2023/06/27 07:16:29;;;;;;;;;10.00;10.00;;;;;;;;119892;1188;24893;-69
2023/06/27 07:18:57;;;;;;;;;10.00;8.00;;;;;;;;119867;1192;25265;-69
2023/06/27 07:21:26;;;;;;;;;12.50;9.00;;;;;;;;119875;1192;24760;-69
2023/06/27 07:23:54;;;;;;;;;8.67;7.33;;;;;;;;119908;1188;25276;-69
2023/06/27 07:26:22;;;;;;;;;7.33;7.00;;;;;;;;119891;1184;25335;-68
2023/06/27 07:28:50;;;;;;;;;13.50;9.50;;;;;;;;119896;1183;24766;-69
2023/06/27 07:31:19;;;;;;;;;7.25;7.25;;;;;;;;119840;1183;24857;-69
2023/06/27 07:33:47;;;;;;;;;13.67;9.67;;;;;;;;119610;1192;24907;-68
2023/06/27 07:36:15;;;;;;;;;8.00;8.00;;;;;;;;119914;1188;25499;-68
2023/06/27 07:38:44;;;;;;;;;10.75;9.75;;;;;;;;119875;1188;25189;-68
2023/06/27 07:41:12;;;;;;;;;12.50;9.50;;;;;;;;119882;1188;25553;-68
2023/06/27 07:43:41;;;;;;;;;9.50;9.00;;;;;;;;119885;1183;25053;-68
2023/06/27 07:46:09;;;;;;;;;10.00;7.00;;;;;;;;119879;1192;25530;-68
2023/06/27 07:48:37;;;;;;;;;6.00;6.00;;;;;;;;119892;1188;25285;-68
2023/06/27 07:51:05;;;;;;;;;10.00;8.00;;;;;;;;119883;1188;24799;-68
2023/06/27 07:53:34;;;;;;;;;10.00;7.00;;;;;;;;119862;1192;24753;-68
2023/06/27 07:56:02;;;;;;;;;6.67;6.67;;;;;;;;119867;1188;25393;-66
2023/06/27 07:58:30;;;;;;;;;9.33;7.00;;;;;;;;119893;1184;24985;-68
2023/06/27 08:00:59;;;;;;;;;12.33;8.67;;;;;;;;119875;1192;25305;-68
2023/06/27 08:03:27;;;;;;;;;9.33;8.67;;;;;;;;119847;1192;25196;-68
2023/06/27 08:05:55;;;;;;;;;12.00;7.75;;;;;;;;119598;1186;24989;-68
2023/06/27 08:08:25;;;;;;;;;8.75;8.25;;;;;;;;119937;1188;24917;-71
2023/06/27 08:10:56;;;;;;;;;7.33;6.67;;;;;;;;119875;1192;25061;-71
2023/06/27 08:13:24;;;;;;;;;8.25;8.00;;;;;;;;119895;1188;26096;-71
2023/06/27 08:15:53;;;;;;;;;13.33;6.67;;;;;;;;119869;1192;24738;-71
2023/06/27 08:18:21;;;;;;;;;9.00;8.50;;;;;;;;119879;1192;25613;-72
2023/06/27 08:20:49;;;;;;;;;8.00;8.00;;;;;;;;119918;1183;25698;-71
2023/06/27 08:23:18;;;;;;;;;9.00;7.00;;;;;;;;119919;1183;25070;-71
2023/06/27 08:25:46;;;;;;;;;9.33;7.00;;;;;;;;119902;1188;24996;-71
2023/06/27 08:28:14;;;;;;;;;7.00;6.00;;;;;;;;119870;1192;24968;-71
2023/06/27 08:30:42;;;;;;;;;9.00;8.00;;;;;;;;119882;1183;26464;-70
2023/06/27 08:33:11;;;;;;;;;7.33;5.67;;;;;;;;119895;1192;25076;-69
2023/06/27 08:35:39;;;;;;;;;9.25;6.50;;;;;;;;119910;1188;25547;-70
2023/06/27 08:38:09;;;;;;;;;7.25;4.75;;;;;;;;119800;1188;24894;-66
2023/06/27 08:40:40;;;;;;;;;8.00;7.50;;;;;;;;119897;1188;25117;-66
2023/06/27 08:43:09;;;;;;;;;7.00;5.50;;;;;;;;119638;1180;25727;-69
2023/06/27 08:45:38;;;;;;;;;8.67;7.33;;;;;;;;119768;1192;25353;-72
2023/06/27 08:48:08;;;;;;;;;9.00;5.67;;;;;;;;119837;1188;25533;-68
2023/06/27 08:50:39;;;;;;;;;9.50;9.50;;;;;;;;119645;1180;25633;-70
2023/06/27 08:53:17;;;;;;;;;10.00;8.67;;;;;;;;119604;1192;25511;-69
2023/06/27 08:56:03;;;;;;;;;10.67;9.00;;;;;;;;119611;1185;24986;-73
2023/06/27 08:58:37;;;;;;;;;11.00;9.00;;;;;;;;119658;1187;25355;-71
2023/06/27 09:01:06;;;;;;;;;10.33;9.00;;;;;;;;119919;1188;25662;-73
2023/06/27 09:03:34;;;;;;;;;11.00;10.00;;;;;;;;119606;1188;25215;-74
2023/06/27 09:06:05;;;;;;;;;12.00;7.33;;;;;;;;119933;1188;25648;-73
2023/06/27 09:08:34;;;;;;;;;12.00;9.00;;;;;;;;119674;1188;24813;-74
2023/06/27 09:11:08;;;;;;;;;8.33;8.33;;;;;;;;119584;1180;25690;-75
2023/06/27 09:13:37;;;;;;;;;9.00;9.00;;;;;;;;119610;1192;24943;-76
2023/06/27 09:16:06;;;;;;;;;13.00;10.00;;;;;;;;119801;1192;25595;-71
2023/06/27 09:18:36;;;;;;;;;15.50;10.50;;;;;;;;119956;1188;26369;-72
2023/06/27 09:21:06;;;;;;;;;8.00;8.00;;;;;;;;119615;1185;25110;-71
2023/06/27 09:23:35;;;;;;;;;13.33;9.00;;;;;;;;119661;1179;25150;-70
2023/06/27 09:26:07;;;;;;;;;7.00;7.00;;;;;;;;119846;1192;25190;-72
2023/06/27 09:28:49;;;;;;;;;10.25;8.25;;;;;;;;119873;1189;25067;-71
2023/06/27 09:31:21;;;;;;;;;11.50;8.50;;;;;;;;119883;1188;26144;-72
2023/06/27 09:33:49;;;;;;;;;6.00;6.00;;;;;;;;119512;1189;25208;-72
2023/06/27 09:36:40;;;;;;;;;8.00;7.33;;;;;;;;119832;1188;24834;-72
2023/06/27 09:39:12;;;;;;;;;8.50;7.25;;;;;;;;119580;1186;25520;-72
2023/06/27 09:41:49;;;;;;;;;12.00;8.00;;;;;;;;119642;1186;25393;-72
2023/06/27 09:44:19;;;;;;;;;5.00;5.00;;;;;;;;119787;1189;24728;-72
2023/06/27 09:46:48;;;;;;;;;10.50;8.50;;;;;;;;119867;1192;25222;-71
2023/06/27 09:49:18;;;;;;;;;6.75;6.75;;;;;;;;119854;1188;25489;-70
2023/06/27 09:51:47;;;;;;;;;5.00;5.00;;;;;;;;119643;1188;24845;-70
2023/06/27 09:54:20;;;;;;;;;8.50;8.00;;;;;;;;119951;1187;24748;-71
2023/06/27 09:56:50;;;;;;;;;8.00;7.33;;;;;;;;119785;1192;25860;-71
2023/06/27 09:59:21;;;;;;;;;9.33;8.67;;;;;;;;119863;1188;24825;-72
2023/06/27 10:01:55;;;;;;;;;9.00;6.00;;;;;;;;119726;1189;24920;-70
2023/06/27 10:04:24;;;;;;;;;8.00;7.00;;;;;;;;119942;1188;25550;-71
2023/06/27 10:06:55;;;;;;;;;8.00;5.50;;;;;;;;119878;1192;25484;-71
2023/06/27 10:09:24;;;;;;;;;8.75;6.50;;;;;;;;119884;1188;25313;-71
2023/06/27 10:11:52;;;;;;;;;9.00;5.00;;;;;;;;119930;1187;25685;-71
2023/06/27 10:14:21;;;;;;;;;8.67;7.00;;;;;;;;119858;1185;24699;-71
2023/06/27 10:16:50;;;;;;;;;9.00;7.50;;;;;;;;119915;1188;25464;-71
2023/06/27 10:19:18;;;;;;;;;9.00;7.33;;;;;;;;119589;1189;25330;-72
2023/06/27 10:21:48;;;;;;;;;8.50;7.50;;;;;;;;119882;1190;25094;-72
2023/06/27 10:24:17;;;;;;;;;7.00;6.00;;;;;;;;119873;1192;25403;-73
2023/06/27 10:26:51;;;;;;;;;7.33;6.33;;;;;;;;119762;1180;24695;-73
2023/06/27 10:29:31;;;;;;;;;7.00;7.00;;;;;;;;119930;1188;24791;-72
2023/06/27 10:32:00;;;;;;;;;7.67;5.67;;;;;;;;119485;1192;24690;-72
2023/06/27 10:34:38;;;;;;;;;6.25;4.50;;;;;;;;119902;1192;25289;-72
2023/06/27 10:37:10;;;;;;;;;7.00;6.00;;;;;;;;119469;1192;25827;-72
2023/06/27 10:39:41;;;;;;;;;8.50;5.50;;;;;;;;119872;1192;24920;-72
2023/06/27 10:42:15;;;;;;;;;8.00;6.00;;;;;;;;119886;1188;25512;-72
2023/06/27 10:44:59;;;;;;;;;7.50;5.50;;;;;;;;119896;1183;25230;-72
2023/06/27 10:47:33;;;;;;;;;6.00;6.00;;;;;;;;119864;1192;25353;-72
2023/06/27 10:50:05;;;;;;;;;9.00;7.00;;;;;;;;119596;1192;24954;-72
2023/06/27 10:52:33;;;;;;;;;8.50;7.00;;;;;;;;119883;1192;25325;-73
2023/06/27 10:55:14;;;;;;;;;6.33;6.00;;;;;;;;119502;1180;24965;-71
2023/06/27 10:57:43;;;;;;;;;7.50;5.00;;;;;;;;119859;1192;24775;-68
2023/06/27 11:00:13;;;;;;;;;8.00;8.00;;;;;;;;119702;1192;25006;-70
2023/06/27 11:02:42;;;;;;;;;5.00;5.00;;;;;;;;119489;1192;24695;-72
2023/06/27 11:05:18;;;;;;;;;3.00;2.33;;;;;;;;119687;1192;25663;-72
2023/06/27 11:07:54;;;;;;;;;8.00;5.00;;;;;;;;119519;1192;26045;-72
2023/06/27 11:10:25;;;;;;;;;9.67;5.33;;;;;;;;119870;1192;25304;-68
2023/06/27 11:13:16;;;;;;;;;6.00;6.00;;;;;;;;119864;1184;25109;-72
2023/06/27 11:15:45;;;;;;;;;5.00;5.00;;;;;;;;119875;1192;24838;-79
2023/06/27 11:18:18;;;;;;;;;10.33;6.00;;;;;;;;119491;1192;25174;-78
2023/06/27 11:20:48;;;;;;;;;5.75;5.75;;;;;;;;119474;1184;24977;-79
2023/06/27 11:23:18;;;;;;;;;8.67;6.67;;;;;;;;119555;1189;25909;-70
2023/06/27 11:25:47;;;;;;;;;8.25;7.50;;;;;;;;119510;1186;24826;-70
2023/06/27 11:28:23;;;;;;;;;7.00;6.00;;;;;;;;119725;1192;25065;-71
2023/06/27 11:30:59;;;;;;;;;7.67;6.33;;;;;;;;119888;1192;25217;-70
2023/06/27 11:33:27;;;;;;;;;4.50;4.50;;;;;;;;119478;1192;25191;-69
2023/06/27 11:35:58;;;;;;;;;7.00;7.00;;;;;;;;119885;1184;25618;-70
2023/06/27 11:38:27;;;;;;;;;6.50;5.75;;;;;;;;119500;1192;25206;-69
2023/06/27 11:40:56;;;;;;;;;9.50;8.50;;;;;;;;119724;1192;25584;-70
2023/06/27 11:43:25;;;;;;;;;7.00;5.00;;;;;;;;119485;1192;25475;-69
2023/06/27 11:45:57;;;;;;;;;6.25;6.25;;;;;;;;119857;1192;25042;-70
2023/06/27 11:48:27;;;;;;;;;3.75;3.75;;;;;;;;119561;1192;25229;-70
2023/06/27 11:50:57;;;;;;;;;6.50;6.25;;;;;;;;119491;1192;25689;-70
2023/06/27 11:53:27;;;;;;;;;8.50;7.00;;;;;;;;119868;1184;24736;-69
2023/06/27 11:55:56;;;;;;;;;5.00;5.00;;;;;;;;119475;1193;24758;-69
2023/06/27 11:58:29;;;;;;;;;7.00;7.00;;;;;;;;119681;1185;24794;-69
2023/06/27 12:00:58;;;;;;;;;8.00;6.00;;;;;;;;119696;1193;25487;-67
2023/06/27 12:03:32;;;;;;;;;5.00;5.00;;;;;;;;119500;1186;24941;-69
2023/06/27 12:06:01;;;;;;;;;9.00;6.00;;;;;;;;119425;1193;25237;-68
2023/06/27 12:08:34;;;;;;;;;5.33;4.67;;;;;;;;119440;1182;24990;-68
2023/06/27 12:11:03;;;;;;;;;7.50;7.50;;;;;;;;119442;1193;25280;-66
2023/06/27 12:13:39;;;;;;;;;6.33;5.00;;;;;;;;119678;1193;24865;-66
2023/06/27 12:16:22;;;;;;;;;8.50;8.00;;;;;;;;119483;1193;24710;-69
2023/06/27 12:18:50;;;;;;;;;7.00;7.00;;;;;;;;119675;1193;25063;-68
2023/06/27 12:21:19;;;;;;;;;8.00;8.00;;;;;;;;119445;1193;25476;-67
2023/06/27 12:23:48;;;;;;;;;6.00;6.00;;;;;;;;119701;1185;25903;-71
2023/06/27 12:26:16;;;;;;;;;6.00;6.00;;;;;;;;119858;1192;25593;-70
2023/06/27 12:28:58;;;;;;;;;7.00;5.00;;;;;;;;119870;1192;25213;-70
2023/06/27 12:31:26;;;;;;;;;8.00;6.00;;;;;;;;119504;1185;25384;-71
2023/06/27 12:33:55;;;;;;;;;4.50;4.50;;;;;;;;119484;1186;24737;-71
2023/06/27 12:36:24;;;;;;;;;6.33;6.00;;;;;;;;119691;1184;25258;-76
2023/06/27 12:38:56;;;;;;;;;6.00;4.50;;;;;;;;119860;1192;25433;-77
2023/06/27 12:41:25;;;;;;;;;6.00;5.75;;;;;;;;119872;1192;25388;-70
2023/06/27 12:43:54;;;;;;;;;5.50;5.00;;;;;;;;119484;1192;25544;-78
2023/06/27 12:46:22;;;;;;;;;8.00;7.00;;;;;;;;119497;1186;25448;-72
2023/06/27 12:48:50;;;;;;;;;8.50;7.00;;;;;;;;119893;1191;24967;-71
2023/06/27 12:51:20;;;;;;;;;6.00;6.00;;;;;;;;119862;1192;25020;-70
2023/06/27 12:53:48;;;;;;;;;9.00;7.75;;;;;;;;119870;1192;25324;-77
2023/06/27 12:56:17;;;;;;;;;8.33;8.33;;;;;;;;119697;1192;25642;-77
2023/06/27 12:58:47;;;;;;;;;8.00;6.67;;;;;;;;119492;1192;24858;-74
2023/06/27 13:01:23;;;;;;;;;5.00;5.00;;;;;;;;119873;1192;25374;-76
2023/06/27 13:03:52;;;;;;;;;8.00;7.00;;;;;;;;119519;1192;24899;-73
2023/06/27 13:06:21;;;;;;;;;6.67;6.67;;;;;;;;119846;1191;25003;-76
2023/06/27 13:08:50;;;;;;;;;8.00;6.00;;;;;;;;119842;1192;25481;-76
2023/06/27 13:11:19;;;;;;;;;6.00;5.00;;;;;;;;119887;1192;25008;-78
2023/06/27 13:13:47;;;;;;;;;8.33;8.33;;;;;;;;119597;1192;25642;-75
2023/06/27 13:16:15;;;;;;;;;9.00;7.00;;;;;;;;119907;1183;24788;-76
2023/06/27 13:18:47;;;;;;;;;7.50;6.00;;;;;;;;119877;1192;25630;-71
2023/06/27 13:21:15;;;;;;;;;8.00;8.00;;;;;;;;119888;1192;24884;-72
2023/06/27 13:23:47;;;;;;;;;11.00;9.00;;;;;;;;119865;1192;25492;-83
2023/06/27 13:26:16;;;;;;;;;6.00;5.50;;;;;;;;119879;1192;25778;-80
2023/06/27 13:28:44;;;;;;;;;8.00;8.00;;;;;;;;119493;1183;25499;-78
2023/06/27 13:31:12;;;;;;;;;9.33;8.00;;;;;;;;119502;1192;25250;-76
2023/06/27 13:33:41;;;;;;;;;7.50;7.50;;;;;;;;119883;1192;24796;-77
2023/06/27 13:36:10;;;;;;;;;9.00;7.50;;;;;;;;119516;1186;25102;-74
2023/06/27 13:38:40;;;;;;;;;8.33;6.67;;;;;;;;119724;1192;25538;-78
2023/06/27 13:41:08;;;;;;;;;7.00;6.50;;;;;;;;119917;1186;25309;-68
2023/06/27 13:43:37;;;;;;;;;6.00;6.00;;;;;;;;119819;1192;25336;-72
2023/06/27 13:46:05;;;;;;;;;9.00;9.00;;;;;;;;119857;1189;24986;-71
2023/06/27 13:48:34;;;;;;;;;5.50;5.50;;;;;;;;119456;1193;25211;-72
2023/06/27 13:51:02;;;;;;;;;7.00;6.00;;;;;;;;119852;1184;25207;-72
2023/06/27 13:53:31;;;;;;;;;8.50;8.00;;;;;;;;119872;1184;25150;-65
2023/06/27 13:55:59;;;;;;;;;6.50;5.00;;;;;;;;119907;1179;24965;-76
2023/06/27 13:58:29;;;;;;;;;8.00;7.00;;;;;;;;119863;1192;24690;-78
2023/06/27 14:01:00;;;;;;;;;5.00;5.00;;;;;;;;119862;1192;25491;-73
2023/06/27 14:03:29;;;;;;;;;4.00;4.00;;;;;;;;119772;1184;25556;-74
2023/06/27 14:05:59;;;;;;;;;6.00;5.00;;;;;;;;119885;1183;25064;-76
2023/06/27 14:08:27;;;;;;;;;7.00;6.00;;;;;;;;119894;1183;25754;-74
2023/06/27 14:10:56;;;;;;;;;5.00;5.00;;;;;;;;119871;1188;24938;-71
2023/06/27 14:13:24;;;;;;;;;8.00;5.00;;;;;;;;119838;1183;25120;-73
2023/06/27 14:15:53;;;;;;;;;6.67;6.67;;;;;;;;119849;1185;25168;-73
2023/06/27 14:18:21;;;;;;;;;9.25;7.25;;;;;;;;119811;1183;24732;-73
2023/06/27 14:20:50;;;;;;;;;9.33;7.67;;;;;;;;119759;1192;25702;-75
2023/06/27 14:23:21;;;;;;;;;9.50;7.00;;;;;;;;119679;1192;25255;-64
2023/06/27 14:25:50;;;;;;;;;9.00;7.00;;;;;;;;119714;1192;25646;-71
2023/06/27 14:28:22;;;;;;;;;6.75;6.00;;;;;;;;119913;1184;25532;-68
2023/06/27 14:30:50;;;;;;;;;6.50;6.50;;;;;;;;119871;1189;25399;-68
2023/06/27 14:33:21;;;;;;;;;6.33;6.33;;;;;;;;119715;1192;25603;-66
2023/06/27 14:35:53;;;;;;;;;11.00;8.00;;;;;;;;119606;1185;25374;-70
2023/06/27 14:38:22;;;;;;;;;7.00;6.50;;;;;;;;119569;1192;25430;-78
2023/06/27 14:40:51;;;;;;;;;8.67;7.00;;;;;;;;119521;1185;25112;-73
2023/06/27 14:43:19;;;;;;;;;7.00;5.33;;;;;;;;119925;1180;24743;-74